Time;durP1;ratioP1;P1;durP2;ratioP2;P2;SDS_P1;SDS_P2;PMS_P1;PMS_P2;Temp;Humidity;BMP_temperature;BMP_pressure;BME280_temperature;BME280_humidity;BME280_pressure;Samples;Min_cycle;Max_cycle;Signal;HPM_P1;HPM_P2
2023/05/08 00:01:41;;;;;;;17.67;15.07;;;;;;;;;;5057039;28;20116;-73
2023/05/08 00:04:07;;;;;;;19.88;15.68;;;;;;;;;;5056884;28;20490;-72
2023/05/08 00:06:33;;;;;;;16.08;13.93;;;;;;;;;;5058456;28;20601;-73
2023/05/08 00:08:59;;;;;;;16.52;14.45;;;;;;;;;;5037943;28;20041;-73
2023/05/08 00:11:25;;;;;;;16.15;14.05;;;;;;;;;;5066538;28;20079;-73
2023/05/08 00:13:51;;;;;;;17.08;14.80;;;;;;;;;;5038341;28;20045;-72
2023/05/08 00:16:17;;;;;;;15.98;14.27;;;;;;;;;;5069543;28;20530;-72
2023/05/08 00:18:44;;;;;;;16.05;14.02;;;;;;;;;;5038327;28;20396;-73
2023/05/08 00:21:10;;;;;;;16.90;14.95;;;;;;;;;;5056649;28;20138;-72
2023/05/08 00:23:36;;;;;;;20.13;15.00;;;;;;;;;;5065710;28;20040;-73
2023/05/08 00:26:02;;;;;;;17.25;14.52;;;;;;;;;;5058005;28;20045;-73
2023/05/08 00:28:28;;;;;;;15.73;13.52;;;;;;;;;;5061319;28;20542;-73
2023/05/08 00:30:54;;;;;;;18.38;14.25;;;;;;;;;;5075157;28;20075;-72
2023/05/08 00:33:20;;;;;;;18.25;14.23;;;;;;;;;;5075225;28;20379;-73
2023/05/08 00:35:46;;;;;;;17.38;14.10;;;;;;;;;;5074031;28;20040;-73
2023/05/08 00:38:12;;;;;;;15.95;13.75;;;;;;;;;;5059458;28;20090;-73
2023/05/08 00:40:38;;;;;;;16.20;14.32;;;;;;;;;;5048022;28;20044;-73
2023/05/08 00:43:04;;;;;;;17.63;14.18;;;;;;;;;;5071330;28;20413;-72
2023/05/08 00:45:37;;;;;;;16.98;13.95;;;;;;;;;;5040677;28;21661;-72
2023/05/08 00:48:03;;;;;;;17.40;13.88;;;;;;;;;;5070401;28;20037;-73
2023/05/08 00:50:30;;;;;;;16.30;13.85;;;;;;;;;;5075045;28;20047;-72
2023/05/08 00:52:57;;;;;;;17.92;14.75;;;;;;;;;;5055013;28;20356;-72
2023/05/08 00:55:23;;;;;;;18.02;14.55;;;;;;;;;;5061334;28;20076;-72
2023/05/08 00:57:49;;;;;;;18.60;14.93;;;;;;;;;;5053155;28;20072;-72
2023/05/08 01:00:16;;;;;;;18.13;13.70;;;;;;;;;;5073207;28;20386;-72
2023/05/08 01:02:42;;;;;;;17.88;14.43;;;;;;;;;;5075021;28;20080;-72
2023/05/08 01:05:09;;;;;;;17.20;14.10;;;;;;;;;;5055310;28;20045;-72
2023/05/08 01:07:35;;;;;;;16.60;14.48;;;;;;;;;;5055851;28;20064;-72
2023/05/08 01:10:01;;;;;;;18.05;14.43;;;;;;;;;;5072015;28;20116;-72
2023/05/08 01:12:37;;;;;;;17.83;14.25;;;;;;;;;;5068320;28;20088;-72
2023/05/08 01:15:06;;;;;;;17.08;14.35;;;;;;;;;;5072679;28;20049;-72
2023/05/08 01:17:35;;;;;;;17.08;13.75;;;;;;;;;;5072756;28;20055;-73
2023/05/08 01:20:18;;;;;;;17.27;14.40;;;;;;;;;;5065995;28;20111;-72
2023/05/08 01:23:01;;;;;;;17.80;14.45;;;;;;;;;;5064651;28;20067;-72
2023/05/08 01:25:37;;;;;;;17.85;14.38;;;;;;;;;;5052725;28;20080;-72
2023/05/08 01:28:12;;;;;;;18.58;14.02;;;;;;;;;;5056173;28;20498;-72
2023/05/08 01:30:55;;;;;;;16.38;13.90;;;;;;;;;;5066913;28;20088;-72
2023/05/08 01:33:26;;;;;;;20.35;14.80;;;;;;;;;;5055140;28;20045;-72
2023/05/08 01:35:55;;;;;;;18.33;14.20;;;;;;;;;;5041109;28;20040;-72
2023/05/08 01:38:21;;;;;;;19.23;15.75;;;;;;;;;;5066868;28;20509;-72
2023/05/08 01:40:53;;;;;;;20.85;14.70;;;;;;;;;;5054936;28;20124;-72
2023/05/08 01:43:38;;;;;;;18.98;14.40;;;;;;;;;;5073162;28;20045;-72
2023/05/08 01:46:08;;;;;;;19.00;14.77;;;;;;;;;;5071515;28;20059;-72
2023/05/08 01:48:35;;;;;;;18.58;14.63;;;;;;;;;;5065496;28;20044;-72
2023/05/08 01:51:11;;;;;;;18.60;14.25;;;;;;;;;;5055726;28;20101;-72
2023/05/08 01:53:41;;;;;;;18.83;14.65;;;;;;;;;;5054912;28;20045;-72
2023/05/08 01:56:16;;;;;;;17.92;14.80;;;;;;;;;;5031200;28;20036;-72
2023/05/08 01:58:42;;;;;;;20.20;15.52;;;;;;;;;;5056236;28;20194;-72
2023/05/08 02:01:10;;;;;;;18.75;14.98;;;;;;;;;;5073024;28;20213;-72
2023/05/08 02:03:37;;;;;;;17.98;14.63;;;;;;;;;;5067107;28;20087;-72
2023/05/08 02:06:04;;;;;;;20.63;15.63;;;;;;;;;;5072611;28;20037;-72
2023/05/08 02:08:30;;;;;;;21.27;15.90;;;;;;;;;;5056753;28;20052;-72
2023/05/08 02:10:58;;;;;;;18.90;15.05;;;;;;;;;;5074971;28;20041;-72
2023/05/08 02:13:25;;;;;;;19.23;14.70;;;;;;;;;;5073955;28;20471;-72
2023/05/08 02:15:53;;;;;;;20.42;15.10;;;;;;;;;;5074172;28;20048;-72
2023/05/08 02:18:20;;;;;;;18.13;14.70;;;;;;;;;;5073068;28;20049;-72
2023/05/08 02:20:47;;;;;;;21.40;16.75;;;;;;;;;;5055898;28;20102;-72
2023/05/08 02:23:15;;;;;;;19.58;15.15;;;;;;;;;;5053153;28;20095;-72
2023/05/08 02:25:41;;;;;;;19.38;15.00;;;;;;;;;;5054003;28;20045;-72
2023/05/08 02:28:08;;;;;;;18.50;14.75;;;;;;;;;;5064932;28;20090;-72
2023/05/08 02:30:34;;;;;;;20.40;16.02;;;;;;;;;;5073624;28;20497;-72
2023/05/08 02:33:00;;;;;;;19.88;14.95;;;;;;;;;;5072665;28;20120;-72
2023/05/08 02:35:28;;;;;;;20.27;15.57;;;;;;;;;;5072549;28;20047;-72
2023/05/08 02:37:55;;;;;;;20.15;15.05;;;;;;;;;;5058866;28;20047;-72
2023/05/08 02:40:22;;;;;;;20.55;15.98;;;;;;;;;;5056586;28;20095;-72
2023/05/08 02:42:49;;;;;;;20.08;15.75;;;;;;;;;;5053865;28;20124;-72
2023/05/08 02:45:15;;;;;;;20.63;15.00;;;;;;;;;;5035932;28;20552;-72
2023/05/08 02:48:07;;;;;;;20.25;15.18;;;;;;;;;;5063902;28;20124;-72
2023/05/08 02:50:37;;;;;;;20.92;16.15;;;;;;;;;;5050563;28;20056;-72
2023/05/08 02:53:04;;;;;;;21.95;15.73;;;;;;;;;;5068598;28;20074;-72
2023/05/08 02:55:40;;;;;;;19.00;14.98;;;;;;;;;;5057690;28;20048;-72
2023/05/08 02:58:24;;;;;;;19.75;15.38;;;;;;;;;;5039745;28;20048;-72
2023/05/08 03:00:59;;;;;;;21.67;15.93;;;;;;;;;;5071640;28;20087;-72
2023/05/08 03:03:28;;;;;;;19.67;15.83;;;;;;;;;;5068909;28;20044;-72
2023/05/08 03:05:56;;;;;;;21.58;16.20;;;;;;;;;;5063282;28;20410;-72
2023/05/08 03:08:30;;;;;;;20.67;16.10;;;;;;;;;;5071332;28;20053;-72
2023/05/08 03:10:58;;;;;;;21.88;15.82;;;;;;;;;;5068187;28;20550;-72
2023/05/08 03:13:27;;;;;;;22.27;16.65;;;;;;;;;;5067197;28;20119;-72
2023/05/08 03:16:00;;;;;;;21.08;16.25;;;;;;;;;;5051187;28;20116;-72
2023/05/08 03:18:30;;;;;;;20.48;16.73;;;;;;;;;;5069932;28;20043;-72
2023/05/08 03:20:57;;;;;;;23.67;16.95;;;;;;;;;;5072398;28;20049;-72
2023/05/08 03:23:25;;;;;;;21.52;15.77;;;;;;;;;;5072735;28;20438;-72
2023/05/08 03:25:52;;;;;;;21.50;16.33;;;;;;;;;;5054257;28;20044;-72
2023/05/08 03:28:19;;;;;;;22.52;16.98;;;;;;;;;;5068536;28;20045;-72
2023/05/08 03:30:45;;;;;;;21.30;15.85;;;;;;;;;;5053136;28;20041;-72
2023/05/08 03:33:12;;;;;;;22.65;16.05;;;;;;;;;;5042296;28;20135;-72
2023/05/08 03:35:38;;;;;;;20.38;15.00;;;;;;;;;;5073691;28;20484;-72
2023/05/08 03:38:05;;;;;;;26.00;16.60;;;;;;;;;;5058930;28;20118;-72
2023/05/08 03:40:35;;;;;;;22.00;16.30;;;;;;;;;;5051599;28;20052;-72
2023/05/08 03:43:02;;;;;;;21.83;16.83;;;;;;;;;;5057329;28;20041;-72
2023/05/08 03:45:29;;;;;;;20.65;15.93;;;;;;;;;;5060486;28;21812;-72
2023/05/08 03:47:55;;;;;;;22.67;17.60;;;;;;;;;;5068232;28;20167;-72
2023/05/08 03:50:21;;;;;;;21.45;15.88;;;;;;;;;;5070609;28;20045;-72
2023/05/08 03:52:47;;;;;;;21.48;15.82;;;;;;;;;;5062851;28;20045;-72
2023/05/08 03:55:14;;;;;;;19.77;15.88;;;;;;;;;;5056931;28;20059;-72
2023/05/08 03:57:45;;;;;;;21.25;15.93;;;;;;;;;;5062681;28;20045;-72
2023/05/08 04:00:12;;;;;;;21.98;16.33;;;;;;;;;;5076674;28;20414;-72
2023/05/08 04:02:40;;;;;;;21.20;15.90;;;;;;;;;;5075186;28;20056;-72
2023/05/08 04:05:14;;;;;;;23.63;16.77;;;;;;;;;;5076953;28;20059;-72
2023/05/08 04:07:47;;;;;;;23.70;16.50;;;;;;;;;;5076295;28;20387;-72
2023/05/08 04:10:18;;;;;;;21.35;16.38;;;;;;;;;;5055628;28;20122;-72
2023/05/08 04:12:48;;;;;;;22.35;15.70;;;;;;;;;;5057542;28;20049;-72
2023/05/08 04:15:18;;;;;;;21.80;16.27;;;;;;;;;;5065409;28;20063;-72
2023/05/08 04:17:49;;;;;;;21.10;15.75;;;;;;;;;;5037586;28;20083;-72
2023/05/08 04:20:20;;;;;;;21.17;15.77;;;;;;;;;;5063183;28;20095;-72
2023/05/08 04:22:47;;;;;;;22.55;17.17;;;;;;;;;;5076491;28;20040;-72
2023/05/08 04:25:14;;;;;;;21.98;16.55;;;;;;;;;;5076609;28;20049;-72
2023/05/08 04:27:42;;;;;;;22.90;16.95;;;;;;;;;;5066937;28;20123;-72
2023/05/08 04:30:08;;;;;;;25.30;17.33;;;;;;;;;;5070750;28;20542;-72
2023/05/08 04:32:35;;;;;;;22.98;16.27;;;;;;;;;;5063701;28;20128;-72
2023/05/08 04:35:01;;;;;;;22.45;16.48;;;;;;;;;;5068826;28;20052;-72
2023/05/08 04:37:30;;;;;;;22.42;15.25;;;;;;;;;;5071522;28;20448;-72
2023/05/08 04:39:56;;;;;;;20.75;15.85;;;;;;;;;;5067927;28;20056;-72
2023/05/08 04:42:24;;;;;;;21.73;15.57;;;;;;;;;;5036908;28;20041;-72
2023/05/08 04:44:50;;;;;;;23.25;16.08;;;;;;;;;;5055432;28;20056;-72
2023/05/08 04:47:16;;;;;;;20.58;15.98;;;;;;;;;;5069694;28;20086;-72
2023/05/08 04:49:42;;;;;;;23.98;17.10;;;;;;;;;;5062213;28;20045;-72
2023/05/08 04:52:08;;;;;;;22.60;16.25;;;;;;;;;;5059008;28;20047;-72
2023/05/08 04:54:35;;;;;;;22.42;16.25;;;;;;;;;;5062632;28;20047;-72
2023/05/08 04:57:01;;;;;;;20.88;16.02;;;;;;;;;;5067417;28;20123;-72
2023/05/08 04:59:28;;;;;;;22.17;15.82;;;;;;;;;;5069068;28;20043;-72
2023/05/08 05:01:54;;;;;;;19.80;15.55;;;;;;;;;;5071174;28;20483;-72
2023/05/08 05:04:21;;;;;;;21.30;15.88;;;;;;;;;;5074335;28;20100;-72
2023/05/08 05:06:47;;;;;;;20.70;15.35;;;;;;;;;;5058766;28;20132;-72
2023/05/08 05:09:13;;;;;;;20.02;15.77;;;;;;;;;;5059134;28;20049;-72
2023/05/08 05:11:39;;;;;;;21.98;16.48;;;;;;;;;;5040096;28;20124;-72
2023/05/08 05:14:06;;;;;;;20.67;15.70;;;;;;;;;;5055380;28;20471;-72
2023/05/08 05:16:32;;;;;;;22.42;16.42;;;;;;;;;;5058484;28;20094;-72
2023/05/08 05:18:58;;;;;;;20.02;15.07;;;;;;;;;;5057856;28;20467;-72
2023/05/08 05:21:24;;;;;;;18.88;14.63;;;;;;;;;;5058040;28;20045;-72
2023/05/08 05:23:51;;;;;;;18.23;14.38;;;;;;;;;;5052617;28;20041;-72
2023/05/08 05:26:17;;;;;;;20.02;15.80;;;;;;;;;;5071285;28;20048;-72
2023/05/08 05:28:43;;;;;;;19.20;14.65;;;;;;;;;;5064159;28;20391;-72
2023/05/08 05:31:09;;;;;;;17.95;14.57;;;;;;;;;;5036325;28;20134;-72
2023/05/08 05:33:35;;;;;;;18.55;14.95;;;;;;;;;;5060625;28;20115;-72
2023/05/08 05:36:04;;;;;;;18.52;14.82;;;;;;;;;;5059538;28;20075;-72
2023/05/08 05:38:30;;;;;;;17.60;14.95;;;;;;;;;;5061840;28;20104;-72
2023/05/08 05:40:56;;;;;;;19.63;15.13;;;;;;;;;;5058196;28;20044;-72
2023/05/08 05:43:22;;;;;;;20.58;14.57;;;;;;;;;;5042792;28;20052;-73
2023/05/08 05:45:48;;;;;;;17.85;14.40;;;;;;;;;;5057846;28;20037;-73
2023/05/08 05:48:14;;;;;;;17.83;14.48;;;;;;;;;;5058632;28;20060;-73
2023/05/08 05:50:40;;;;;;;18.85;13.95;;;;;;;;;;5071806;28;20044;-72
2023/05/08 05:53:06;;;;;;;18.08;13.85;;;;;;;;;;5055475;28;20048;-73
2023/05/08 05:55:34;;;;;;;17.85;14.30;;;;;;;;;;5068295;28;20068;-72
2023/05/08 05:58:00;;;;;;;17.75;13.90;;;;;;;;;;5054181;28;20110;-73
2023/05/08 06:00:26;;;;;;;17.30;14.27;;;;;;;;;;5055623;28;20048;-73
2023/05/08 06:02:52;;;;;;;17.13;14.02;;;;;;;;;;5074878;28;20079;-73
2023/05/08 06:05:18;;;;;;;17.30;14.30;;;;;;;;;;5057425;28;20037;-73
2023/05/08 06:07:45;;;;;;;16.98;13.48;;;;;;;;;;5064614;28;20074;-73
2023/05/08 06:10:11;;;;;;;17.00;13.93;;;;;;;;;;5055153;28;20048;-73
2023/05/08 06:12:37;;;;;;;17.63;14.07;;;;;;;;;;5059069;28;20060;-73
2023/05/08 06:15:03;;;;;;;16.88;13.13;;;;;;;;;;5057604;28;20043;-73
2023/05/08 06:17:30;;;;;;;17.58;13.10;;;;;;;;;;5062217;28;20063;-73
2023/05/08 06:19:56;;;;;;;16.33;13.13;;;;;;;;;;5072919;28;20105;-73
2023/05/08 06:22:23;;;;;;;17.98;14.52;;;;;;;;;;5074186;28;20501;-72
2023/05/08 06:24:52;;;;;;;16.42;12.98;;;;;;;;;;5074050;28;20391;-72
2023/05/08 06:27:19;;;;;;;17.15;13.98;;;;;;;;;;5055924;28;20068;-72
2023/05/08 06:29:45;;;;;;;15.77;13.50;;;;;;;;;;5037533;28;20369;-73
2023/05/08 06:32:11;;;;;;;15.98;12.90;;;;;;;;;;5064641;28;20067;-73
2023/05/08 06:34:40;;;;;;;17.15;13.48;;;;;;;;;;5071529;28;20036;-72
2023/05/08 06:37:06;;;;;;;16.40;13.43;;;;;;;;;;5055178;28;20040;-73
2023/05/08 06:39:32;;;;;;;17.25;13.80;;;;;;;;;;5038032;28;20040;-72
2023/05/08 06:41:58;;;;;;;16.35;13.18;;;;;;;;;;5052465;28;20033;-72
2023/05/08 06:44:24;;;;;;;16.23;13.10;;;;;;;;;;5054183;28;20047;-73
2023/05/08 06:46:50;;;;;;;16.77;13.27;;;;;;;;;;5050753;28;20049;-73
2023/05/08 06:49:16;;;;;;;16.27;12.98;;;;;;;;;;5071133;28;20040;-72
2023/05/08 06:51:42;;;;;;;16.95;12.75;;;;;;;;;;5037411;28;20076;-73
2023/05/08 06:54:08;;;;;;;17.67;13.85;;;;;;;;;;5038133;28;20501;-73
2023/05/08 06:56:35;;;;;;;15.82;13.63;;;;;;;;;;5035117;28;20131;-73
2023/05/08 06:59:01;;;;;;;15.57;12.82;;;;;;;;;;5064349;28;20080;-73
2023/05/08 07:01:29;;;;;;;16.95;14.45;;;;;;;;;;5052831;28;20049;-73
2023/05/08 07:03:55;;;;;;;16.10;12.77;;;;;;;;;;5073522;28;20041;-73
2023/05/08 07:06:21;;;;;;;19.02;13.73;;;;;;;;;;5071495;28;20040;-73
2023/05/08 07:08:47;;;;;;;16.15;13.57;;;;;;;;;;5054401;28;20101;-73
2023/05/08 07:11:13;;;;;;;15.02;12.65;;;;;;;;;;5053037;28;20133;-73
2023/05/08 07:13:42;;;;;;;16.92;13.13;;;;;;;;;;5053902;28;20048;-73
2023/05/08 07:16:11;;;;;;;15.95;13.23;;;;;;;;;;5053685;28;20052;-73
2023/05/08 07:18:37;;;;;;;16.00;12.80;;;;;;;;;;5060173;28;20379;-72
2023/05/08 07:21:03;;;;;;;14.90;12.77;;;;;;;;;;5064248;28;20072;-72
2023/05/08 07:23:29;;;;;;;15.38;13.25;;;;;;;;;;5061723;28;20110;-72
2023/05/08 07:25:56;;;;;;;14.85;13.02;;;;;;;;;;5053629;28;20053;-72
2023/05/08 07:28:22;;;;;;;15.07;13.23;;;;;;;;;;5037278;28;20057;-72
2023/05/08 07:30:48;;;;;;;15.40;13.45;;;;;;;;;;5053218;28;20123;-73
2023/05/08 07:33:14;;;;;;;14.48;12.40;;;;;;;;;;5065346;28;20056;-72
2023/05/08 07:35:41;;;;;;;15.60;12.85;;;;;;;;;;5056114;28;20052;-73
2023/05/08 07:38:07;;;;;;;14.25;12.57;;;;;;;;;;5070122;28;20127;-73
2023/05/08 07:40:34;;;;;;;14.75;12.88;;;;;;;;;;5056087;28;20087;-73
2023/05/08 07:43:00;;;;;;;15.73;13.70;;;;;;;;;;5043853;28;20052;-72
2023/05/08 07:45:26;;;;;;;14.23;12.70;;;;;;;;;;5072227;28;20372;-72
2023/05/08 07:47:53;;;;;;;15.10;12.85;;;;;;;;;;5069888;28;20063;-72
2023/05/08 07:50:19;;;;;;;14.50;12.77;;;;;;;;;;5053221;28;20637;-72
2023/05/08 07:52:46;;;;;;;15.15;12.93;;;;;;;;;;5058670;28;20120;-73
2023/05/08 07:55:12;;;;;;;17.08;14.02;;;;;;;;;;5053589;28;20052;-73
2023/05/08 07:57:40;;;;;;;14.35;12.73;;;;;;;;;;5052870;28;20548;-76
2023/05/08 08:00:06;;;;;;;17.50;13.20;;;;;;;;;;5052972;28;20071;-73
2023/05/08 08:02:32;;;;;;;15.68;13.45;;;;;;;;;;5064675;28;20044;-73
2023/05/08 08:04:59;;;;;;;14.82;12.98;;;;;;;;;;5052713;28;20037;-73
2023/05/08 08:07:25;;;;;;;15.23;13.15;;;;;;;;;;5058389;28;20394;-73
2023/05/08 08:09:51;;;;;;;17.88;13.93;;;;;;;;;;5057956;28;20045;-73
2023/05/08 08:12:17;;;;;;;14.80;13.13;;;;;;;;;;5066172;28;20080;-73
2023/05/08 08:14:43;;;;;;;15.65;13.38;;;;;;;;;;5050943;28;20053;-73
2023/05/08 08:17:09;;;;;;;16.05;13.43;;;;;;;;;;5066354;28;20041;-73
2023/05/08 08:19:35;;;;;;;14.73;13.18;;;;;;;;;;5058336;28;20048;-72
2023/05/08 08:22:01;;;;;;;14.10;12.60;;;;;;;;;;5055200;28;20043;-73
2023/05/08 08:24:28;;;;;;;14.25;12.73;;;;;;;;;;5060326;28;20124;-73
2023/05/08 08:26:54;;;;;;;15.00;13.40;;;;;;;;;;5072325;28;20052;-73
2023/05/08 08:29:20;;;;;;;16.90;14.70;;;;;;;;;;5064151;28;20088;-73
2023/05/08 08:31:46;;;;;;;15.93;13.35;;;;;;;;;;5056282;28;20041;-73
2023/05/08 08:34:12;;;;;;;15.27;13.05;;;;;;;;;;5062321;28;20095;-73
2023/05/08 08:36:39;;;;;;;15.25;12.90;;;;;;;;;;5060766;28;20113;-73
2023/05/08 08:39:05;;;;;;;14.98;13.18;;;;;;;;;;5047795;28;20486;-73
2023/05/08 08:41:32;;;;;;;15.23;13.27;;;;;;;;;;5049600;28;20072;-73
2023/05/08 08:43:58;;;;;;;16.83;13.23;;;;;;;;;;5066037;28;20588;-73
2023/05/08 08:46:25;;;;;;;14.73;13.00;;;;;;;;;;5064432;28;20120;-73
2023/05/08 08:48:52;;;;;;;15.25;13.65;;;;;;;;;;5058380;28;20140;-73
2023/05/08 08:51:31;;;;;;;15.30;13.55;;;;;;;;;;5072594;28;20063;-73
2023/05/08 08:54:04;;;;;;;16.25;13.90;;;;;;;;;;5050542;28;20384;-72
2023/05/08 08:56:31;;;;;;;15.43;13.45;;;;;;;;;;5061067;28;20045;-73
2023/05/08 08:58:58;;;;;;;16.10;13.82;;;;;;;;;;5055687;28;20102;-73
2023/05/08 09:01:25;;;;;;;15.98;14.13;;;;;;;;;;5064107;28;20072;-74
2023/05/08 09:03:51;;;;;;;15.18;13.60;;;;;;;;;;5063790;28;20044;-74
2023/05/08 09:06:18;;;;;;;16.67;14.63;;;;;;;;;;5081290;28;20068;-74
2023/05/08 09:08:44;;;;;;;15.88;13.82;;;;;;;;;;5055493;28;20053;-74
2023/05/08 09:11:10;;;;;;;17.92;15.30;;;;;;;;;;5055838;28;20116;-74
2023/05/08 09:13:37;;;;;;;16.58;14.55;;;;;;;;;;5034289;28;20125;-74
2023/05/08 09:16:03;;;;;;;16.35;14.38;;;;;;;;;;5042977;28;20045;-74
2023/05/08 09:18:29;;;;;;;16.65;14.85;;;;;;;;;;5067945;28;20045;-74
2023/05/08 09:20:56;;;;;;;18.98;15.30;;;;;;;;;;5033789;28;20049;-77
2023/05/08 09:23:22;;;;;;;17.10;15.10;;;;;;;;;;5067009;28;20399;-73
2023/05/08 09:25:49;;;;;;;38.30;20.13;;;;;;;;;;5060562;28;20068;-74
2023/05/08 09:28:16;;;;;;;18.13;15.27;;;;;;;;;;5049077;28;20064;-74
2023/05/08 09:30:52;;;;;;;18.73;14.82;;;;;;;;;;5062766;28;20072;-74
2023/05/08 09:33:18;;;;;;;18.40;15.65;;;;;;;;;;5065130;28;20044;-74
2023/05/08 09:35:47;;;;;;;17.25;15.27;;;;;;;;;;5043229;28;20044;-74
2023/05/08 09:38:35;;;;;;;32.05;19.27;;;;;;;;;;5047531;28;20080;-74
2023/05/08 09:41:08;;;;;;;21.55;16.30;;;;;;;;;;5061453;28;20060;-77
2023/05/08 09:43:34;;;;;;;18.40;16.05;;;;;;;;;;5045827;28;20106;-73
2023/05/08 09:46:22;;;;;;;19.77;16.70;;;;;;;;;;5068838;28;20395;-74
2023/05/08 09:48:52;;;;;;;17.40;15.25;;;;;;;;;;5058656;28;20526;-73
2023/05/08 09:51:18;;;;;;;21.50;16.70;;;;;;;;;;5046842;28;20119;-75
2023/05/08 09:53:44;;;;;;;19.77;16.65;;;;;;;;;;5061026;28;20037;-74
2023/05/08 09:56:10;;;;;;;21.70;16.42;;;;;;;;;;5063905;28;20048;-74
2023/05/08 09:58:39;;;;;;;22.58;17.38;;;;;;;;;;5038681;28;20048;-74
2023/05/08 10:01:06;;;;;;;34.35;20.90;;;;;;;;;;5063808;28;20548;-74
2023/05/08 10:03:47;;;;;;;19.77;17.60;;;;;;;;;;5056690;28;20502;-74
2023/05/08 10:06:14;;;;;;;20.33;17.38;;;;;;;;;;5067930;28;20045;-74
2023/05/08 10:08:40;;;;;;;20.38;17.23;;;;;;;;;;5066929;28;20110;-74
2023/05/08 10:11:14;;;;;;;19.55;16.40;;;;;;;;;;5049615;28;20170;-74
2023/05/08 10:13:40;;;;;;;23.23;18.58;;;;;;;;;;5041524;28;20037;-74
2023/05/08 10:16:07;;;;;;;20.83;17.90;;;;;;;;;;5062583;28;20047;-74
2023/05/08 10:18:35;;;;;;;21.05;17.52;;;;;;;;;;5060191;28;20320;-74
2023/05/08 10:21:06;;;;;;;22.02;19.00;;;;;;;;;;5066944;28;20051;-73
2023/05/08 10:23:33;;;;;;;20.27;17.20;;;;;;;;;;5052044;28;20129;-75
2023/05/08 10:26:05;;;;;;;19.17;17.00;;;;;;;;;;5061398;28;20166;-75
2023/05/08 10:28:33;;;;;;;18.98;16.30;;;;;;;;;;5073930;28;20045;-75
2023/05/08 10:31:04;;;;;;;21.00;17.17;;;;;;;;;;5055946;28;20041;-75
2023/05/08 10:33:30;;;;;;;20.20;17.13;;;;;;;;;;5060731;28;20503;-75
2023/05/08 10:35:56;;;;;;;19.33;16.67;;;;;;;;;;5060534;28;20042;-75
2023/05/08 10:38:23;;;;;;;19.33;16.95;;;;;;;;;;5069876;28;20120;-75
2023/05/08 10:40:52;;;;;;;18.85;16.70;;;;;;;;;;5055834;28;20044;-75
2023/05/08 10:43:18;;;;;;;19.20;16.67;;;;;;;;;;5056069;28;20052;-75
2023/05/08 10:45:44;;;;;;;21.00;17.52;;;;;;;;;;5071111;28;20048;-75
2023/05/08 10:48:18;;;;;;;21.40;17.08;;;;;;;;;;5065182;28;20049;-75
2023/05/08 10:50:44;;;;;;;20.63;16.95;;;;;;;;;;5059681;28;20037;-75
2023/05/08 10:53:20;;;;;;;19.92;17.30;;;;;;;;;;5065539;28;20394;-75
2023/05/08 10:55:49;;;;;;;20.02;16.77;;;;;;;;;;5056351;28;20128;-75
2023/05/08 10:58:28;;;;;;;20.13;17.45;;;;;;;;;;5057183;28;20040;-75
2023/05/08 11:01:05;;;;;;;20.52;17.45;;;;;;;;;;5054782;28;20049;-75
2023/05/08 11:03:31;;;;;;;20.60;16.60;;;;;;;;;;5065984;28;20098;-75
2023/05/08 11:05:58;;;;;;;20.23;17.83;;;;;;;;;;5057906;28;20499;-75
2023/05/08 11:08:26;;;;;;;20.20;17.75;;;;;;;;;;5057501;28;20114;-74
2023/05/08 11:10:52;;;;;;;21.65;18.15;;;;;;;;;;5070842;28;20040;-75
2023/05/08 11:13:19;;;;;;;21.52;18.17;;;;;;;;;;5043647;28;20071;-75
2023/05/08 11:15:49;;;;;;;19.83;17.02;;;;;;;;;;5064186;28;20454;-75
2023/05/08 11:18:16;;;;;;;19.05;16.73;;;;;;;;;;5057989;28;20493;-75
2023/05/08 11:20:54;;;;;;;21.63;17.35;;;;;;;;;;5053322;28;20376;-75
2023/05/08 11:23:24;;;;;;;23.40;17.67;;;;;;;;;;5056912;28;20036;-75
2023/05/08 11:25:59;;;;;;;20.55;17.50;;;;;;;;;;5065578;28;20045;-75
2023/05/08 11:28:25;;;;;;;19.17;16.40;;;;;;;;;;5061931;28;20083;-75
2023/05/08 11:30:57;;;;;;;17.70;15.82;;;;;;;;;;5056087;28;20045;-75
2023/05/08 11:33:29;;;;;;;21.40;18.30;;;;;;;;;;5073271;28;20040;-75
2023/05/08 11:35:56;;;;;;;19.10;17.02;;;;;;;;;;5073200;28;20041;-75
2023/05/08 11:38:22;;;;;;;21.70;18.60;;;;;;;;;;5054490;28;20045;-75
2023/05/08 11:40:53;;;;;;;19.35;16.58;;;;;;;;;;5059789;28;20076;-75
2023/05/08 11:43:25;;;;;;;20.30;16.98;;;;;;;;;;5054219;28;20060;-75
2023/05/08 11:45:52;;;;;;;20.95;16.15;;;;;;;;;;5071914;28;20115;-75
2023/05/08 11:48:18;;;;;;;20.13;17.58;;;;;;;;;;5061962;28;20044;-75
2023/05/08 11:50:45;;;;;;;20.65;16.35;;;;;;;;;;5062378;28;20047;-75
2023/05/08 11:53:11;;;;;;;19.23;17.15;;;;;;;;;;5053280;28;20067;-75
2023/05/08 11:55:38;;;;;;;21.08;18.17;;;;;;;;;;5055466;28;20116;-75
2023/05/08 11:58:11;;;;;;;21.75;17.48;;;;;;;;;;5055729;28;20076;-75
2023/05/08 12:00:44;;;;;;;20.58;17.50;;;;;;;;;;5056602;28;20049;-75
2023/05/08 12:03:14;;;;;;;22.75;17.13;;;;;;;;;;5063528;28;20055;-75
2023/05/08 12:05:40;;;;;;;19.63;17.35;;;;;;;;;;5065532;28;20060;-75
2023/05/08 12:08:07;;;;;;;19.98;16.88;;;;;;;;;;5071345;28;20052;-75
2023/05/08 12:10:39;;;;;;;18.10;16.20;;;;;;;;;;5040524;28;20062;-75
2023/05/08 12:13:15;;;;;;;20.60;17.88;;;;;;;;;;5055246;28;20120;-75
2023/05/08 12:15:41;;;;;;;18.90;16.15;;;;;;;;;;5057199;28;20053;-75
2023/05/08 12:18:07;;;;;;;22.50;18.90;;;;;;;;;;5073606;28;20044;-75
2023/05/08 12:20:33;;;;;;;22.95;18.02;;;;;;;;;;5076725;28;20067;-75
2023/05/08 12:23:01;;;;;;;23.15;19.13;;;;;;;;;;5071254;28;20113;-76
2023/05/08 12:25:28;;;;;;;19.50;17.40;;;;;;;;;;5064575;28;20126;-75
2023/05/08 12:27:54;;;;;;;21.38;18.05;;;;;;;;;;5044752;28;20039;-75
2023/05/08 12:30:20;;;;;;;22.05;18.40;;;;;;;;;;5067959;28;20052;-75
2023/05/08 12:32:46;;;;;;;24.52;17.73;;;;;;;;;;5051055;28;20500;-75
2023/05/08 12:35:12;;;;;;;20.58;18.38;;;;;;;;;;5070529;28;20098;-75
2023/05/08 12:37:39;;;;;;;21.88;18.00;;;;;;;;;;5037993;28;20092;-75
2023/05/08 12:40:06;;;;;;;20.63;18.38;;;;;;;;;;5058215;28;20048;-75
2023/05/08 12:42:44;;;;;;;20.15;17.73;;;;;;;;;;5067155;28;20048;-75
2023/05/08 12:45:17;;;;;;;21.02;17.80;;;;;;;;;;5066896;28;20041;-75
2023/05/08 12:47:50;;;;;;;21.65;17.38;;;;;;;;;;5069549;28;20052;-75
2023/05/08 12:50:17;;;;;;;19.98;16.55;;;;;;;;;;5074061;28;20174;-75
2023/05/08 12:52:43;;;;;;;22.70;18.38;;;;;;;;;;5067414;28;20052;-75
2023/05/08 12:55:26;;;;;;;20.50;17.75;;;;;;;;;;5056963;28;20471;-75
2023/05/08 12:57:58;;;;;;;20.60;18.05;;;;;;;;;;5064203;28;20043;-75
2023/05/08 13:00:25;;;;;;;20.63;17.80;;;;;;;;;;5038313;28;20154;-75
2023/05/08 13:02:54;;;;;;;20.42;18.23;;;;;;;;;;5057078;28;20036;-75
2023/05/08 13:05:21;;;;;;;21.05;17.08;;;;;;;;;;5074888;28;20047;-75
2023/05/08 13:07:48;;;;;;;19.05;16.58;;;;;;;;;;5037332;28;20085;-75
2023/05/08 13:10:14;;;;;;;18.60;16.60;;;;;;;;;;5071372;28;20497;-75
2023/05/08 13:12:40;;;;;;;20.83;17.85;;;;;;;;;;5075718;28;20051;-75
2023/05/08 13:15:06;;;;;;;20.75;18.50;;;;;;;;;;5074426;28;20040;-75
2023/05/08 13:17:32;;;;;;;18.98;16.83;;;;;;;;;;5073835;28;20054;-75
2023/05/08 13:19:58;;;;;;;18.70;15.95;;;;;;;;;;5064636;28;20106;-75
2023/05/08 13:22:25;;;;;;;17.52;15.63;;;;;;;;;;5063772;28;20043;-75
2023/05/08 13:24:52;;;;;;;21.02;18.60;;;;;;;;;;5067967;28;20057;-75
2023/05/08 13:27:18;;;;;;;22.92;19.88;;;;;;;;;;5056024;28;20049;-75
2023/05/08 13:29:44;;;;;;;21.75;19.23;;;;;;;;;;5073273;28;20048;-75
2023/05/08 13:32:10;;;;;;;21.83;19.35;;;;;;;;;;5065575;28;20051;-75
2023/05/08 13:34:36;;;;;;;21.05;18.73;;;;;;;;;;5034523;28;20048;-75
2023/05/08 13:37:02;;;;;;;21.60;18.67;;;;;;;;;;5072797;28;20063;-75
2023/05/08 13:39:30;;;;;;;21.70;19.35;;;;;;;;;;5074924;28;20053;-75
2023/05/08 13:41:56;;;;;;;22.25;19.83;;;;;;;;;;5074944;28;20119;-75
2023/05/08 13:44:23;;;;;;;22.30;19.80;;;;;;;;;;5074674;28;20551;-75
2023/05/08 13:46:49;;;;;;;25.17;21.00;;;;;;;;;;5065227;28;20048;-75
2023/05/08 13:49:18;;;;;;;25.40;21.83;;;;;;;;;;5067247;28;20057;-75
2023/05/08 13:51:44;;;;;;;24.13;21.00;;;;;;;;;;5051810;28;20080;-75
2023/05/08 13:54:10;;;;;;;33.63;27.30;;;;;;;;;;5058358;28;20546;-75
2023/05/08 13:56:36;;;;;;;32.55;27.35;;;;;;;;;;5074592;28;20044;-75
2023/05/08 13:59:02;;;;;;;32.35;26.60;;;;;;;;;;5074338;28;20033;-78
2023/05/08 14:01:28;;;;;;;35.63;28.92;;;;;;;;;;5035838;28;20491;-75
2023/05/08 14:03:55;;;;;;;34.28;28.60;;;;;;;;;;5067449;28;20146;-75
2023/05/08 14:06:21;;;;;;;35.20;28.65;;;;;;;;;;5058609;28;20044;-75
2023/05/08 14:08:47;;;;;;;33.45;27.17;;;;;;;;;;5039959;28;20105;-75
2023/05/08 14:11:13;;;;;;;35.45;28.40;;;;;;;;;;5074946;28;20479;-75
2023/05/08 14:13:41;;;;;;;34.53;28.30;;;;;;;;;;5041230;28;20052;-75
2023/05/08 14:16:09;;;;;;;32.40;26.50;;;;;;;;;;5075924;28;20044;-75
2023/05/08 14:18:35;;;;;;;32.05;27.80;;;;;;;;;;5069020;28;20074;-75
2023/05/08 14:21:01;;;;;;;32.00;26.88;;;;;;;;;;5073212;28;20048;-75